createdAt,value
2023-05-08T00:01:04.136Z,101479.19
2023-05-08T00:03:31.152Z,101480.72
2023-05-08T00:05:57.704Z,101481.44
2023-05-08T00:08:24.325Z,101485.19
2023-05-08T00:10:50.955Z,101484.38
2023-05-08T00:13:17.474Z,101486.28
2023-05-08T00:15:44.059Z,101489.72
2023-05-08T00:18:10.565Z,101482.91
2023-05-08T00:20:37.819Z,101483.03
2023-05-08T00:23:04.635Z,101477.88
2023-05-08T00:25:31.969Z,101494.63
2023-05-08T00:27:59.235Z,101491.19
2023-05-08T00:30:25.851Z,101497.16
2023-05-08T00:32:52.811Z,101498.13
2023-05-08T00:35:19.849Z,101497.00
2023-05-08T00:37:46.500Z,101490.63
2023-05-08T00:40:13.273Z,101499.25
2023-05-08T00:42:40.106Z,101490.38
2023-05-08T00:45:07.213Z,101480.94
2023-05-08T00:47:34.536Z,101489.94
2023-05-08T00:50:01.408Z,101486.03
2023-05-08T00:52:30.661Z,101486.31
2023-05-08T00:54:57.116Z,101485.34
2023-05-08T00:57:24.311Z,101494.50
2023-05-08T00:59:52.551Z,101488.00
2023-05-08T01:02:19.293Z,101488.72
2023-05-08T01:04:46.242Z,101485.94
2023-05-08T01:07:12.638Z,101486.63
2023-05-08T01:09:39.668Z,101496.91
2023-05-08T01:12:31.625Z,101493.56
2023-05-08T01:15:29.366Z,101488.56
2023-05-08T01:18:11.023Z,101496.47
2023-05-08T01:20:49.370Z,101492.72
2023-05-08T01:23:25.024Z,101489.81
2023-05-08T01:26:10.158Z,101495.94
2023-05-08T01:28:59.715Z,101497.59
2023-05-08T01:31:48.857Z,101506.19
2023-05-08T01:34:26.788Z,101504.41
2023-05-08T01:37:11.640Z,101507.03
2023-05-08T01:39:51.311Z,101507.03
2023-05-08T01:42:39.173Z,101500.78
2023-05-08T01:45:16.293Z,101506.19
2023-05-08T01:47:46.176Z,101506.19
2023-05-08T01:50:22.171Z,101509.66
2023-05-08T01:52:53.349Z,101512.44
2023-05-08T01:55:35.744Z,101510.19
2023-05-08T01:58:07.187Z,101520.75
2023-05-08T02:00:33.773Z,101520.16
2023-05-08T02:03:01.807Z,101522.13
2023-05-08T02:05:29.217Z,101518.78
2023-05-08T02:07:57.310Z,101525.03
2023-05-08T02:10:25.197Z,101528.59
2023-05-08T02:12:53.493Z,101533.06
2023-05-08T02:15:21.931Z,101526.94
2023-05-08T02:17:49.535Z,101532.22
2023-05-08T02:20:16.958Z,101537.47
2023-05-08T02:22:44.865Z,101534.16
2023-05-08T02:25:14.638Z,101545.53
2023-05-08T02:27:46.877Z,101542.06
2023-05-08T02:30:15.984Z,101542.06
2023-05-08T02:32:44.503Z,101545.09
2023-05-08T02:35:13.600Z,101538.28
2023-05-08T02:37:44.126Z,101550.63
2023-05-08T02:40:11.845Z,101545.47
2023-05-08T02:42:38.809Z,101543.69
2023-05-08T02:45:05.825Z,101533.16
2023-05-08T02:48:01.097Z,101547.84
2023-05-08T02:50:38.716Z,101537.31
2023-05-08T02:53:11.429Z,101540.78
2023-05-08T02:55:48.619Z,101538.16
2023-05-08T02:58:37.148Z,101530.38
2023-05-08T03:01:08.387Z,101527.03
2023-05-08T03:03:40.922Z,101532.31
2023-05-08T03:06:18.248Z,101529.22
2023-05-08T03:08:47.478Z,101520.91
2023-05-08T03:11:16.298Z,101521.59
2023-05-08T03:13:44.590Z,101516.72
2023-05-08T03:16:17.256Z,101524.75
2023-05-08T03:18:51.056Z,101521.53
2023-05-08T03:21:19.717Z,101523.47
2023-05-08T03:23:49.550Z,101520.84
2023-05-08T03:26:21.955Z,101524.28
2023-05-08T03:28:49.789Z,101529.69
2023-05-08T03:31:23.087Z,101531.47
2023-05-08T03:33:56.206Z,101518.59
2023-05-08T03:36:24.933Z,101522.72
2023-05-08T03:38:51.491Z,101527.41
2023-05-08T03:41:18.179Z,101522.53
2023-05-08T03:43:45.984Z,101513.22
2023-05-08T03:46:13.071Z,101516.69
2023-05-08T03:48:41.136Z,101524.56
2023-05-08T03:51:07.608Z,101516.69
2023-05-08T03:53:34.060Z,101522.91
2023-05-08T03:56:01.977Z,101522.22
2023-05-08T03:58:40.692Z,101520.66
2023-05-08T04:01:51.616Z,101527.03
2023-05-08T04:04:38.056Z,101531.00
2023-05-08T04:07:29.276Z,101538.41
2023-05-08T04:09:59.502Z,101536.31
2023-05-08T04:12:35.603Z,101537.38
2023-05-08T04:15:09.850Z,101544.00
2023-05-08T04:18:12.751Z,101536.34
2023-05-08T04:20:41.401Z,101533.28
2023-05-08T04:23:09.470Z,101531.03
2023-05-08T04:25:38.831Z,101537.25
2023-05-08T04:28:05.611Z,101536.78
2023-05-08T04:30:32.167Z,101542.28
2023-05-08T04:32:59.727Z,101540.75
2023-05-08T04:35:26.229Z,101538.38
2023-05-08T04:37:52.735Z,101544.91
2023-05-08T04:40:19.308Z,101544.78
2023-05-08T04:42:47.441Z,101549.91
2023-05-08T04:45:14.595Z,101537.75
2023-05-08T04:47:41.192Z,101537.03
2023-05-08T04:50:07.924Z,101543.47
2023-05-08T04:52:34.439Z,101544.13
2023-05-08T04:55:00.873Z,101544.72
2023-05-08T04:57:27.271Z,101548.19
2023-05-08T04:59:53.672Z,101549.38
2023-05-08T05:02:20.091Z,101552.34
2023-05-08T05:04:46.580Z,101546.59
2023-05-08T05:07:13.027Z,101554.41
2023-05-08T05:09:39.490Z,101558.34
2023-05-08T05:12:06.932Z,101554.16
2023-05-08T05:14:33.529Z,101559.50
2023-05-08T05:16:59.961Z,101559.00
2023-05-08T05:19:27.104Z,101559.09
2023-05-08T05:21:53.538Z,101565.84
2023-05-08T05:24:19.974Z,101568.34
2023-05-08T05:26:46.496Z,101566.09
2023-05-08T05:29:13.181Z,101572.69
2023-05-08T05:31:39.639Z,101564.16
2023-05-08T05:34:06.099Z,101570.78
2023-05-08T05:36:32.573Z,101572.75
2023-05-08T05:38:58.973Z,101568.47
2023-05-08T05:41:26.218Z,101576.09
2023-05-08T05:43:52.664Z,101574.31
2023-05-08T05:46:21.033Z,101578.19
2023-05-08T05:48:47.985Z,101578.31
2023-05-08T05:51:14.401Z,101584.31
2023-05-08T05:53:40.814Z,101581.66
2023-05-08T05:56:07.518Z,101583.16
2023-05-08T05:58:34.342Z,101583.53
2023-05-08T06:01:01.194Z,101586.28
2023-05-08T06:03:28.295Z,101588.06
2023-05-08T06:05:56.436Z,101593.91
2023-05-08T06:08:23.129Z,101583.31
2023-05-08T06:10:49.654Z,101586.88
2023-05-08T06:13:16.475Z,101593.59
2023-05-08T06:15:42.956Z,101594.09
2023-05-08T06:18:09.503Z,101589.19
2023-05-08T06:20:38.486Z,101584.63
2023-05-08T06:23:05.796Z,101589.47
2023-05-08T06:25:32.296Z,101579.31
2023-05-08T06:27:58.807Z,101599.75
2023-05-08T06:30:25.334Z,101606.06
2023-05-08T06:32:51.706Z,101608.38
2023-05-08T06:35:19.543Z,101603.56
2023-05-08T06:37:46.823Z,101604.88
2023-05-08T06:40:13.727Z,101615.84
2023-05-08T06:42:41.055Z,101610.84
2023-05-08T06:45:09.082Z,101613.88
2023-05-08T06:47:35.600Z,101617.97
2023-05-08T06:50:02.077Z,101613.47
2023-05-08T06:52:28.555Z,101616.03
2023-05-08T06:54:55.022Z,101616.56
2023-05-08T06:57:21.512Z,101619.28
2023-05-08T06:59:47.928Z,101620.13
2023-05-08T07:02:16.314Z,101625.13
2023-05-08T07:04:44.339Z,101624.16
2023-05-08T07:07:11.607Z,101611.78
2023-05-08T07:09:38.128Z,101626.34
2023-05-08T07:12:04.892Z,101623.84
2023-05-08T07:14:31.354Z,101629.06
2023-05-08T07:16:58.634Z,101634.63
2023-05-08T07:19:25.127Z,101635.31
2023-05-08T07:21:51.574Z,101628.22
2023-05-08T07:24:18.100Z,101632.41
2023-05-08T07:26:44.759Z,101642.25
2023-05-08T07:29:11.176Z,101641.03
2023-05-08T07:31:40.359Z,101645.22
2023-05-08T07:34:07.250Z,101655.75
2023-05-08T07:36:33.804Z,101650.78
2023-05-08T07:39:00.303Z,101641.63
2023-05-08T07:41:26.720Z,101640.94
2023-05-08T07:43:53.370Z,101652.50
2023-05-08T07:46:19.896Z,101646.09
2023-05-08T07:48:46.405Z,101635.22
2023-05-08T07:51:13.778Z,101643.66
2023-05-08T07:53:40.257Z,101630.34
2023-05-08T07:56:06.950Z,101639.41
2023-05-08T07:58:33.381Z,101640.38
2023-05-08T08:00:59.795Z,101637.59
2023-05-08T08:03:26.365Z,101647.91
2023-05-08T08:05:52.954Z,101635.56
2023-05-08T08:08:19.400Z,101636.09
2023-05-08T08:10:45.767Z,101629.53
2023-05-08T08:13:12.224Z,101638.66
2023-05-08T08:15:38.761Z,101635.91
2023-05-08T08:18:05.286Z,101638.88
2023-05-08T08:20:31.749Z,101639.19
2023-05-08T08:22:58.545Z,101636.72
2023-05-08T08:25:24.950Z,101643.91
2023-05-08T08:27:51.417Z,101648.72
2023-05-08T08:30:18.813Z,101637.66
2023-05-08T08:32:46.143Z,101642.97
2023-05-08T08:35:13.626Z,101654.47
2023-05-08T08:37:40.354Z,101641.91
2023-05-08T08:40:07.592Z,101638.97
2023-05-08T08:42:34.175Z,101641.59
2023-05-08T08:45:01.644Z,101642.31
2023-05-08T08:47:29.907Z,101637.97
2023-05-08T08:50:01.744Z,101646.06
2023-05-08T08:52:34.265Z,101639.66
2023-05-08T08:55:03.234Z,101641.13
2023-05-08T08:57:34.013Z,101642.84
2023-05-08T09:00:06.905Z,101648.63
2023-05-08T09:02:34.666Z,101638.09
2023-05-08T09:05:02.953Z,101634.41
2023-05-08T09:07:30.174Z,101639.31
2023-05-08T09:09:56.951Z,101636.97
2023-05-08T09:12:23.473Z,101636.28
2023-05-08T09:14:50.873Z,101642.47
2023-05-08T09:17:17.293Z,101641.97
2023-05-08T09:19:43.946Z,101641.59
2023-05-08T09:22:11.710Z,101643.13
2023-05-08T09:25:00.985Z,101640.47
2023-05-08T09:27:29.499Z,101634.13
2023-05-08T09:30:00.735Z,101639.88
2023-05-08T09:32:28.310Z,101632.31
2023-05-08T09:34:54.977Z,101638.47
2023-05-08T09:37:21.798Z,101642.06
2023-05-08T09:39:48.593Z,101640.88
2023-05-08T09:42:15.132Z,101634.28
2023-05-08T09:44:52.299Z,101634.59
2023-05-08T09:47:21.942Z,101638.13
2023-05-08T09:49:58.640Z,101633.19
2023-05-08T09:52:25.352Z,101627.38
2023-05-08T09:55:08.414Z,101632.06
2023-05-08T09:57:38.405Z,101628.66
2023-05-08T10:00:10.017Z,101623.69
2023-05-08T10:02:38.673Z,101631.41
2023-05-08T10:05:22.644Z,101620.22
2023-05-08T10:07:49.125Z,101620.09
2023-05-08T10:10:23.936Z,101618.28
2023-05-08T10:12:51.273Z,101609.66
2023-05-08T10:15:18.189Z,101615.53
2023-05-08T10:17:52.551Z,101621.03
2023-05-08T10:20:21.592Z,101614.16
2023-05-08T10:22:49.237Z,101618.94
2023-05-08T10:25:22.320Z,101619.16
2023-05-08T10:28:07.023Z,101617.56
2023-05-08T10:30:38.175Z,101610.91
2023-05-08T10:33:10.424Z,101609.47
2023-05-08T10:35:40.402Z,101615.97
2023-05-08T10:38:09.842Z,101612.47
2023-05-08T10:40:41.345Z,101607.66
2023-05-08T10:43:09.981Z,101600.28
2023-05-08T10:45:38.217Z,101605.28
2023-05-08T10:48:16.797Z,101602.03
2023-05-08T10:50:46.256Z,101598.28
2023-05-08T10:53:27.980Z,101595.09
2023-05-08T10:55:55.574Z,101594.75
2023-05-08T10:58:32.716Z,101593.22
2023-05-08T11:01:07.413Z,101594.44
2023-05-08T11:03:43.289Z,101581.84
2023-05-08T11:06:11.483Z,101589.63
2023-05-08T11:08:53.084Z,101590.63
2023-05-08T11:11:30.188Z,101592.44
2023-05-08T11:14:11.093Z,101576.50
2023-05-08T11:16:59.867Z,101580.28
2023-05-08T11:19:27.035Z,101587.25
2023-05-08T11:22:26.931Z,101584.31
2023-05-08T11:25:05.438Z,101583.66
2023-05-08T11:28:00.830Z,101584.50
2023-05-08T11:30:33.050Z,101586.97
2023-05-08T11:33:06.092Z,101574.53
2023-05-08T11:36:11.849Z,101578.16
2023-05-08T11:38:38.804Z,101577.69
2023-05-08T11:41:06.523Z,101582.66
2023-05-08T11:43:32.992Z,101574.84
2023-05-08T11:46:08.446Z,101582.16
2023-05-08T11:48:35.750Z,101572.03
2023-05-08T11:51:03.723Z,101577.69
2023-05-08T11:53:31.436Z,101577.28
2023-05-08T11:55:59.119Z,101577.41
2023-05-08T11:58:26.038Z,101563.22
2023-05-08T12:00:53.202Z,101571.19
2023-05-08T12:03:21.421Z,101574.69
2023-05-08T12:05:49.764Z,101575.69
2023-05-08T12:08:17.671Z,101586.66
2023-05-08T12:10:47.018Z,101578.19
2023-05-08T12:13:33.171Z,101582.03
2023-05-08T12:16:01.025Z,101572.66
2023-05-08T12:18:29.301Z,101564.97
2023-05-08T12:21:00.843Z,101572.56
2023-05-08T12:23:31.874Z,101571.88
2023-05-08T12:26:00.445Z,101569.72
2023-05-08T12:28:27.373Z,101573.78
2023-05-08T12:30:54.024Z,101570.97
2023-05-08T12:33:21.224Z,101575.19
2023-05-08T12:35:47.874Z,101582.03
2023-05-08T12:38:15.695Z,101561.34
2023-05-08T12:40:49.137Z,101572.13
2023-05-08T12:43:15.740Z,101560.56
2023-05-08T12:45:42.978Z,101570.50
2023-05-08T12:48:13.362Z,101563.09
2023-05-08T12:50:41.865Z,101568.91
2023-05-08T12:53:17.181Z,101565.03
2023-05-08T12:55:52.829Z,101560.38
2023-05-08T12:58:20.841Z,101563.03
2023-05-08T13:00:49.940Z,101554.53
2023-05-08T13:03:25.845Z,101548.56
2023-05-08T13:05:54.270Z,101538.72
2023-05-08T13:08:21.054Z,101543.66
2023-05-08T13:10:52.664Z,101541.34
2023-05-08T13:13:21.399Z,101549.13
2023-05-08T13:15:49.287Z,101542.16
2023-05-08T13:18:16.858Z,101525.78
2023-05-08T13:20:44.184Z,101529.94
2023-05-08T13:23:10.846Z,101518.25
2023-05-08T13:25:38.210Z,101517.09
2023-05-08T13:28:05.861Z,101506.09
2023-05-08T13:30:32.288Z,101521.69
2023-05-08T13:32:58.780Z,101518.81
2023-05-08T13:35:26.354Z,101526.69
2023-05-08T13:37:52.763Z,101524.97
2023-05-08T13:40:19.212Z,101509.97
2023-05-08T13:42:45.689Z,101515.13
2023-05-08T13:45:14.704Z,101517.28
2023-05-08T13:47:46.035Z,101517.59
2023-05-08T13:50:14.142Z,101520.06
2023-05-08T13:52:40.851Z,101517.94
2023-05-08T13:55:09.062Z,101513.97
2023-05-08T13:57:36.190Z,101521.78
2023-05-08T14:00:04.301Z,101523.09
2023-05-08T14:02:30.942Z,101520.78
2023-05-08T14:04:57.428Z,101518.63
2023-05-08T14:07:23.892Z,101519.78
2023-05-08T14:09:50.620Z,101522.78
2023-05-08T14:12:17.246Z,101518.63
2023-05-08T14:14:43.741Z,101510.00
2023-05-08T14:17:10.742Z,101522.44
2023-05-08T14:19:37.177Z,101519.94
2023-05-08T14:22:03.714Z,101521.28
2023-05-08T14:24:30.230Z,101521.94
2023-05-08T14:26:56.763Z,101518.44
2023-05-08T14:29:23.233Z,101522.22
2023-05-08T14:31:49.738Z,101519.47
2023-05-08T14:34:16.365Z,101519.66
2023-05-08T14:36:42.839Z,101521.38
2023-05-08T14:39:09.475Z,101521.13
2023-05-08T14:41:36.862Z,101516.63
2023-05-08T14:44:04.805Z,101502.19
2023-05-08T14:46:31.322Z,101509.75
2023-05-08T14:48:57.811Z,101508.97
2023-05-08T14:51:24.255Z,101516.44
2023-05-08T14:53:50.835Z,101506.28
2023-05-08T14:56:18.001Z,101508.13
2023-05-08T14:58:44.659Z,101508.19
2023-05-08T15:01:11.111Z,101512.16
2023-05-08T15:03:37.825Z,101510.44
2023-05-08T15:06:04.961Z,101505.19
2023-05-08T15:08:31.411Z,101518.47
2023-05-08T15:10:57.832Z,101514.50
2023-05-08T15:13:24.273Z,101506.72
2023-05-08T15:15:51.284Z,101504.47
2023-05-08T15:18:17.788Z,101493.00
2023-05-08T15:20:44.158Z,101491.47
2023-05-08T15:23:10.566Z,101493.16
2023-05-08T15:25:36.971Z,101493.72
2023-05-08T15:28:03.466Z,101493.03
2023-05-08T15:30:29.960Z,101491.72
2023-05-08T15:32:56.403Z,101502.16
2023-05-08T15:35:22.894Z,101499.34
2023-05-08T15:37:49.290Z,101486.78
2023-05-08T15:40:15.800Z,101500.53
2023-05-08T15:42:42.249Z,101487.63
2023-05-08T15:45:09.198Z,101490.47
2023-05-08T15:47:35.629Z,101478.19
2023-05-08T15:50:02.042Z,101482.31
2023-05-08T15:52:28.498Z,101486.09
2023-05-08T15:54:54.925Z,101488.72
2023-05-08T15:57:21.434Z,101486.56
2023-05-08T15:59:47.975Z,101477.47
2023-05-08T16:02:14.507Z,101486.81
2023-05-08T16:04:41.004Z,101487.59
2023-05-08T16:07:07.424Z,101477.03
2023-05-08T16:09:33.819Z,101487.00
2023-05-08T16:12:00.223Z,101490.97
2023-05-08T16:14:26.985Z,101486.06
2023-05-08T16:16:53.428Z,101484.88
2023-05-08T16:19:19.986Z,101481.91
2023-05-08T16:21:47.622Z,101481.91
2023-05-08T16:24:14.420Z,101485.06
2023-05-08T16:26:41.183Z,101475.63
2023-05-08T16:29:07.602Z,101473.16
2023-05-08T16:31:34.118Z,101474.69
2023-05-08T16:34:00.724Z,101469.38
2023-05-08T16:36:27.617Z,101477.50
2023-05-08T16:38:54.158Z,101462.75
2023-05-08T16:41:21.477Z,101465.91
2023-05-08T16:43:47.938Z,101465.72
2023-05-08T16:46:14.463Z,101472.69
2023-05-08T16:48:42.241Z,101455.44
2023-05-08T16:51:08.715Z,101449.28
2023-05-08T16:53:35.789Z,101451.78
2023-05-08T16:56:02.285Z,101460.56
2023-05-08T16:58:28.748Z,101459.22
2023-05-08T17:00:55.304Z,101454.28
2023-05-08T17:03:21.925Z,101450.28
2023-05-08T17:05:48.523Z,101456.59
2023-05-08T17:08:15.021Z,101450.97
2023-05-08T17:10:41.552Z,101454.44
2023-05-08T17:13:08.023Z,101460.91
2023-05-08T17:15:34.540Z,101460.91
2023-05-08T17:18:01.088Z,101456.72
2023-05-08T17:20:27.619Z,101452.25
2023-05-08T17:22:54.479Z,101447.59
2023-05-08T17:25:22.421Z,101440.81
2023-05-08T17:27:49.154Z,101450.94
2023-05-08T17:30:16.903Z,101446.44
2023-05-08T17:32:43.819Z,101455.75
2023-05-08T17:35:10.376Z,101460.56
2023-05-08T17:37:37.268Z,101457.44
2023-05-08T17:40:03.925Z,101460.59
2023-05-08T17:42:30.466Z,101462.91
2023-05-08T17:44:56.880Z,101460.56
2023-05-08T17:47:23.429Z,101454.91
2023-05-08T17:49:49.952Z,101464.69
2023-05-08T17:52:16.390Z,101460.19
2023-05-08T17:54:42.875Z,101455.72
2023-05-08T17:57:09.274Z,101457.53
2023-05-08T17:59:35.813Z,101455.03
2023-05-08T18:02:02.271Z,101448.22
2023-05-08T18:04:28.705Z,101456.03
2023-05-08T18:06:55.114Z,101451.88
2023-05-08T18:09:21.545Z,101453.34
2023-05-08T18:11:47.980Z,101461.44
2023-05-08T18:14:14.434Z,101450.47
2023-05-08T18:16:40.890Z,101458.25
2023-05-08T18:19:07.341Z,101459.06
2023-05-08T18:21:33.830Z,101459.72
2023-05-08T18:24:00.893Z,101455.41
2023-05-08T18:26:27.360Z,101455.72
2023-05-08T18:28:53.796Z,101459.66
2023-05-08T18:31:20.214Z,101448.41
2023-05-08T18:33:46.663Z,101448.19
2023-05-08T18:36:13.116Z,101448.97
2023-05-08T18:38:41.563Z,101444.50
2023-05-08T18:41:07.998Z,101452.72
2023-05-08T18:43:34.587Z,101451.91
2023-05-08T18:46:12.195Z,101443.97
2023-05-08T18:48:41.642Z,101434.66
2023-05-08T18:51:08.255Z,101439.59
2023-05-08T18:53:38.176Z,101443.25
2023-05-08T18:56:05.032Z,101444.06
2023-05-08T18:58:31.675Z,101450.19
2023-05-08T19:00:58.564Z,101454.59
2023-05-08T19:03:25.717Z,101459.59
2023-05-08T19:05:54.574Z,101452.59
2023-05-08T19:08:20.991Z,101448.13
2023-05-08T19:10:47.363Z,101467.47
2023-05-08T19:13:13.939Z,101468.16
2023-05-08T19:15:40.585Z,101464.78
2023-05-08T19:18:07.433Z,101455.94
2023-05-08T19:20:33.904Z,101455.38
2023-05-08T19:23:00.531Z,101458.69
2023-05-08T19:25:26.977Z,101459.97
2023-05-08T19:27:53.388Z,101451.81
2023-05-08T19:30:19.827Z,101456.72
2023-05-08T19:32:46.320Z,101456.38
2023-05-08T19:35:12.809Z,101459.13
2023-05-08T19:37:39.662Z,101465.66
2023-05-08T19:40:06.774Z,101477.06
2023-05-08T19:42:33.417Z,101470.69
2023-05-08T19:45:00.121Z,101471.47
2023-05-08T19:47:26.737Z,101466.25
2023-05-08T19:49:54.140Z,101469.09
2023-05-08T19:52:20.697Z,101459.16
2023-05-08T19:54:47.257Z,101451.38
2023-05-08T19:57:13.766Z,101450.84
2023-05-08T19:59:40.183Z,101450.84
2023-05-08T20:02:07.009Z,101453.63
2023-05-08T20:04:39.999Z,101445.53
2023-05-08T20:07:18.590Z,101447.88
2023-05-08T20:09:45.024Z,101452.88
2023-05-08T20:12:11.496Z,101459.50
2023-05-08T20:14:37.931Z,101451.75
2023-05-08T20:17:04.407Z,101456.66
2023-05-08T20:19:30.906Z,101457.78
2023-05-08T20:21:57.357Z,101461.09
2023-05-08T20:24:23.854Z,101458.31
2023-05-08T20:26:54.250Z,101450.84
2023-05-08T20:29:21.068Z,101446.00
2023-05-08T20:31:47.567Z,101449.47
2023-05-08T20:34:14.071Z,101446.59
2023-05-08T20:36:40.706Z,101441.22
2023-05-08T20:39:07.214Z,101434.44
2023-05-08T20:41:33.624Z,101439.66
2023-05-08T20:44:00.052Z,101443.00
2023-05-08T20:46:26.927Z,101447.03
2023-05-08T20:48:53.436Z,101441.75
2023-05-08T20:51:19.970Z,101445.66
2023-05-08T20:53:47.162Z,101445.50
2023-05-08T20:56:18.890Z,101440.75
2023-05-08T20:58:46.130Z,101434.09
2023-05-08T21:01:12.582Z,101430.34
2023-05-08T21:03:39.151Z,101426.47
2023-05-08T21:06:05.761Z,101429.44
2023-05-08T21:08:32.215Z,101427.47
2023-05-08T21:10:58.637Z,101425.81
2023-05-08T21:13:25.375Z,101417.22
2023-05-08T21:15:51.906Z,101418.03
2023-05-08T21:18:18.564Z,101428.91
2023-05-08T21:20:49.717Z,101422.63
2023-05-08T21:23:20.496Z,101418.88
2023-05-08T21:25:47.998Z,101411.09
2023-05-08T21:28:15.165Z,101416.81
2023-05-08T21:30:42.713Z,101409.34
2023-05-08T21:33:13.673Z,101406.16
2023-05-08T21:35:41.575Z,101409.09
2023-05-08T21:38:08.951Z,101402.34
2023-05-08T21:40:35.369Z,101401.66
2023-05-08T21:43:01.809Z,101400.41
2023-05-08T21:45:31.618Z,101400.31
2023-05-08T21:47:59.132Z,101386.56
2023-05-08T21:50:28.317Z,101389.34
2023-05-08T21:52:56.589Z,101402.84
2023-05-08T21:55:23.337Z,101390.63
2023-05-08T21:57:49.870Z,101381.06
2023-05-08T22:00:16.812Z,101383.84
2023-05-08T22:02:43.284Z,101379.22
2023-05-08T22:05:09.949Z,101382.84
2023-05-08T22:07:36.396Z,101381.88
2023-05-08T22:10:02.906Z,101377.88
2023-05-08T22:12:29.349Z,101383.84
2023-05-08T22:14:55.796Z,101376.88
2023-05-08T22:17:22.209Z,101376.03
2023-05-08T22:19:48.644Z,101374.13
2023-05-08T22:22:15.063Z,101376.88
2023-05-08T22:24:41.531Z,101364.13
2023-05-08T22:27:07.959Z,101369.41
2023-05-08T22:29:34.329Z,101364.44
2023-05-08T22:32:00.780Z,101369.41
2023-05-08T22:34:27.240Z,101369.28
2023-05-08T22:36:53.646Z,101367.00
2023-05-08T22:39:20.126Z,101373.81
2023-05-08T22:41:46.620Z,101368.22
2023-05-08T22:44:13.168Z,101373.25
2023-05-08T22:46:39.681Z,101359.72
2023-05-08T22:49:06.372Z,101365.69
2023-05-08T22:51:32.818Z,101360.41
2023-05-08T22:53:59.278Z,101358.63
2023-05-08T22:56:25.739Z,101363.06
2023-05-08T22:58:54.653Z,101363.50
2023-05-08T23:01:22.283Z,101358.38
2023-05-08T23:03:51.066Z,101355.75
2023-05-08T23:06:17.473Z,101347.53
2023-05-08T23:08:43.873Z,101333.19
2023-05-08T23:11:10.611Z,101340.00
2023-05-08T23:13:37.070Z,101344.44
2023-05-08T23:16:03.684Z,101340.84
2023-05-08T23:18:30.563Z,101330.66
2023-05-08T23:20:56.975Z,101326.78
2023-05-08T23:23:23.413Z,101334.31
2023-05-08T23:25:49.808Z,101322.13
2023-05-08T23:28:16.220Z,101325.31
2023-05-08T23:30:42.606Z,101321.03
2023-05-08T23:33:09.042Z,101316.31
2023-05-08T23:35:35.521Z,101321.22
2023-05-08T23:38:02.003Z,101310.41
2023-05-08T23:40:29.513Z,101312.66
2023-05-08T23:42:56.134Z,101315.97
2023-05-08T23:45:22.545Z,101306.28
2023-05-08T23:47:49.349Z,101299.75
2023-05-08T23:50:15.965Z,101300.72
2023-05-08T23:52:42.395Z,101296.41
2023-05-08T23:55:09.397Z,101297.28
2023-05-08T23:57:36.087Z,101284.53
